sensor_id;sensor_type;location;lat;lon;timestamp;P1;durP1;ratioP1;P2;durP2;ratioP2
75435;SDS011;64014;53.432;14.534;2023-06-22T00:02:00;8.15;;;5.55;;
75435;SDS011;64014;53.432;14.534;2023-06-22T00:04:27;9.35;;;5.05;;
75435;SDS011;64014;53.432;14.534;2023-06-22T00:06:53;6.03;;;4.75;;
75435;SDS011;64014;53.432;14.534;2023-06-22T00:09:19;8.75;;;5.32;;
75435;SDS011;64014;53.432;14.534;2023-06-22T00:11:45;9.40;;;4.43;;
75435;SDS011;64014;53.432;14.534;2023-06-22T00:14:11;8.30;;;5.95;;
75435;SDS011;64014;53.432;14.534;2023-06-22T00:16:38;8.52;;;5.15;;
75435;SDS011;64014;53.432;14.534;2023-06-22T00:19:04;6.80;;;4.72;;
75435;SDS011;64014;53.432;14.534;2023-06-22T00:21:30;9.20;;;5.45;;
75435;SDS011;64014;53.432;14.534;2023-06-22T00:23:56;8.70;;;4.80;;
75435;SDS011;64014;53.432;14.534;2023-06-22T00:26:23;7.22;;;5.05;;
75435;SDS011;64014;53.432;14.534;2023-06-22T00:28:49;6.35;;;4.88;;
75435;SDS011;64014;53.432;14.534;2023-06-22T00:31:16;8.98;;;5.00;;
75435;SDS011;64014;53.432;14.534;2023-06-22T00:33:42;8.77;;;5.15;;
75435;SDS011;64014;53.432;14.534;2023-06-22T00:36:08;8.07;;;5.53;;
75435;SDS011;64014;53.432;14.534;2023-06-22T00:38:38;8.35;;;5.75;;
75435;SDS011;64014;53.432;14.534;2023-06-22T00:41:05;7.35;;;5.05;;
75435;SDS011;64014;53.432;14.534;2023-06-22T00:43:31;9.73;;;5.40;;
75435;SDS011;64014;53.432;14.534;2023-06-22T00:45:57;9.50;;;5.10;;
75435;SDS011;64014;53.432;14.534;2023-06-22T00:48:24;7.50;;;5.32;;
75435;SDS011;64014;53.432;14.534;2023-06-22T00:50:50;8.18;;;5.05;;
75435;SDS011;64014;53.432;14.534;2023-06-22T00:53:19;7.00;;;4.55;;
75435;SDS011;64014;53.432;14.534;2023-06-22T00:55:45;7.88;;;4.80;;
75435;SDS011;64014;53.432;14.534;2023-06-22T00:58:18;7.78;;;4.65;;
75435;SDS011;64014;53.432;14.534;2023-06-22T01:00:47;9.68;;;4.72;;
75435;SDS011;64014;53.432;14.534;2023-06-22T01:03:13;8.00;;;4.40;;
75435;SDS011;64014;53.432;14.534;2023-06-22T01:08:16;7.18;;;4.40;;
75435;SDS011;64014;53.432;14.534;2023-06-22T01:10:50;8.43;;;5.78;;
75435;SDS011;64014;53.432;14.534;2023-06-22T01:13:35;7.03;;;4.97;;
75435;SDS011;64014;53.432;14.534;2023-06-22T01:16:03;8.02;;;4.97;;
75435;SDS011;64014;53.432;14.534;2023-06-22T01:18:31;9.57;;;6.00;;
75435;SDS011;64014;53.432;14.534;2023-06-22T01:21:01;9.80;;;5.45;;
75435;SDS011;64014;53.432;14.534;2023-06-22T01:23:36;7.05;;;5.38;;
75435;SDS011;64014;53.432;14.534;2023-06-22T01:31:07;8.85;;;5.35;;
75435;SDS011;64014;53.432;14.534;2023-06-22T01:33:35;7.13;;;5.03;;
75435;SDS011;64014;53.432;14.534;2023-06-22T01:36:03;9.02;;;5.47;;
75435;SDS011;64014;53.432;14.534;2023-06-22T01:38:30;10.50;;;5.65;;
75435;SDS011;64014;53.432;14.534;2023-06-22T01:40:59;10.48;;;6.13;;
75435;SDS011;64014;53.432;14.534;2023-06-22T01:43:26;8.05;;;5.95;;
75435;SDS011;64014;53.432;14.534;2023-06-22T01:45:53;10.40;;;5.45;;
75435;SDS011;64014;53.432;14.534;2023-06-22T01:48:20;8.90;;;6.45;;
75435;SDS011;64014;53.432;14.534;2023-06-22T01:50:47;8.13;;;5.68;;
75435;SDS011;64014;53.432;14.534;2023-06-22T01:53:13;8.95;;;5.95;;
75435;SDS011;64014;53.432;14.534;2023-06-22T01:55:39;9.68;;;6.13;;
75435;SDS011;64014;53.432;14.534;2023-06-22T01:58:05;9.90;;;6.13;;
75435;SDS011;64014;53.432;14.534;2023-06-22T02:00:32;11.07;;;7.20;;
75435;SDS011;64014;53.432;14.534;2023-06-22T02:03:00;8.40;;;6.10;;
75435;SDS011;64014;53.432;14.534;2023-06-22T02:05:29;10.07;;;6.20;;
75435;SDS011;64014;53.432;14.534;2023-06-22T02:08:07;9.43;;;6.30;;
75435;SDS011;64014;53.432;14.534;2023-06-22T02:10:35;9.02;;;6.18;;
75435;SDS011;64014;53.432;14.534;2023-06-22T02:13:03;8.38;;;5.80;;
75435;SDS011;64014;53.432;14.534;2023-06-22T02:15:30;9.38;;;5.75;;
75435;SDS011;64014;53.432;14.534;2023-06-22T02:17:57;13.05;;;7.05;;
75435;SDS011;64014;53.432;14.534;2023-06-22T02:20:23;8.68;;;6.07;;
75435;SDS011;64014;53.432;14.534;2023-06-22T02:22:50;10.73;;;6.15;;
75435;SDS011;64014;53.432;14.534;2023-06-22T02:25:16;9.13;;;6.40;;
75435;SDS011;64014;53.432;14.534;2023-06-22T02:27:42;9.82;;;6.95;;
75435;SDS011;64014;53.432;14.534;2023-06-22T02:30:08;10.43;;;6.18;;
75435;SDS011;64014;53.432;14.534;2023-06-22T02:32:35;9.13;;;6.63;;
75435;SDS011;64014;53.432;14.534;2023-06-22T02:35:01;10.30;;;6.68;;
75435;SDS011;64014;53.432;14.534;2023-06-22T02:37:30;9.48;;;5.82;;
75435;SDS011;64014;53.432;14.534;2023-06-22T02:39:56;10.45;;;6.80;;
75435;SDS011;64014;53.432;14.534;2023-06-22T02:42:22;11.23;;;7.20;;
75435;SDS011;64014;53.432;14.534;2023-06-22T02:44:49;12.13;;;7.78;;
75435;SDS011;64014;53.432;14.534;2023-06-22T02:47:15;16.10;;;10.80;;
75435;SDS011;64014;53.432;14.534;2023-06-22T02:49:41;16.05;;;9.98;;
75435;SDS011;64014;53.432;14.534;2023-06-22T02:52:08;14.32;;;9.15;;
75435;SDS011;64014;53.432;14.534;2023-06-22T02:54:34;11.68;;;8.10;;
75435;SDS011;64014;53.432;14.534;2023-06-22T02:57:00;15.18;;;7.93;;
75435;SDS011;64014;53.432;14.534;2023-06-22T02:59:29;12.73;;;7.00;;
75435;SDS011;64014;53.432;14.534;2023-06-22T03:01:56;15.50;;;6.90;;
75435;SDS011;64014;53.432;14.534;2023-06-22T03:04:22;11.40;;;7.22;;
75435;SDS011;64014;53.432;14.534;2023-06-22T03:06:48;12.45;;;9.77;;
75435;SDS011;64014;53.432;14.534;2023-06-22T03:09:16;10.70;;;7.30;;
75435;SDS011;64014;53.432;14.534;2023-06-22T03:11:42;12.10;;;7.22;;
75435;SDS011;64014;53.432;14.534;2023-06-22T03:14:09;9.27;;;7.00;;
75435;SDS011;64014;53.432;14.534;2023-06-22T03:16:35;9.90;;;6.55;;
75435;SDS011;64014;53.432;14.534;2023-06-22T03:19:01;14.65;;;6.85;;
75435;SDS011;64014;53.432;14.534;2023-06-22T03:21:28;11.27;;;6.55;;
75435;SDS011;64014;53.432;14.534;2023-06-22T03:23:54;11.02;;;7.10;;
75435;SDS011;64014;53.432;14.534;2023-06-22T03:26:21;11.27;;;7.32;;
75435;SDS011;64014;53.432;14.534;2023-06-22T03:28:48;13.68;;;7.57;;
75435;SDS011;64014;53.432;14.534;2023-06-22T03:31:14;9.88;;;7.07;;
75435;SDS011;64014;53.432;14.534;2023-06-22T03:33:40;9.32;;;6.30;;
75435;SDS011;64014;53.432;14.534;2023-06-22T03:36:07;11.10;;;7.00;;
75435;SDS011;64014;53.432;14.534;2023-06-22T03:38:33;11.43;;;6.85;;
75435;SDS011;64014;53.432;14.534;2023-06-22T03:40:59;10.98;;;7.32;;
75435;SDS011;64014;53.432;14.534;2023-06-22T03:43:26;10.63;;;6.32;;
75435;SDS011;64014;53.432;14.534;2023-06-22T03:45:52;9.80;;;6.75;;
75435;SDS011;64014;53.432;14.534;2023-06-22T03:48:18;10.88;;;7.43;;
75435;SDS011;64014;53.432;14.534;2023-06-22T03:50:44;10.23;;;7.53;;
75435;SDS011;64014;53.432;14.534;2023-06-22T03:53:10;9.52;;;7.22;;
75435;SDS011;64014;53.432;14.534;2023-06-22T03:55:40;11.35;;;6.65;;
75435;SDS011;64014;53.432;14.534;2023-06-22T03:58:06;9.55;;;6.05;;
75435;SDS011;64014;53.432;14.534;2023-06-22T04:00:34;10.07;;;6.38;;
75435;SDS011;64014;53.432;14.534;2023-06-22T04:03:00;8.13;;;5.65;;
75435;SDS011;64014;53.432;14.534;2023-06-22T04:05:26;11.65;;;7.05;;
75435;SDS011;64014;53.432;14.534;2023-06-22T04:07:53;12.05;;;6.30;;
75435;SDS011;64014;53.432;14.534;2023-06-22T04:10:19;10.38;;;6.47;;
75435;SDS011;64014;53.432;14.534;2023-06-22T04:12:45;10.73;;;6.68;;
75435;SDS011;64014;53.432;14.534;2023-06-22T04:15:11;13.13;;;7.20;;
75435;SDS011;64014;53.432;14.534;2023-06-22T04:17:37;11.85;;;6.90;;
75435;SDS011;64014;53.432;14.534;2023-06-22T04:20:03;11.00;;;7.30;;
75435;SDS011;64014;53.432;14.534;2023-06-22T04:22:30;12.73;;;7.40;;
75435;SDS011;64014;53.432;14.534;2023-06-22T04:24:56;11.02;;;7.40;;
75435;SDS011;64014;53.432;14.534;2023-06-22T04:27:22;10.55;;;7.47;;
75435;SDS011;64014;53.432;14.534;2023-06-22T04:29:48;12.73;;;6.80;;
75435;SDS011;64014;53.432;14.534;2023-06-22T04:32:16;11.40;;;6.60;;
75435;SDS011;64014;53.432;14.534;2023-06-22T04:34:42;12.48;;;6.97;;
75435;SDS011;64014;53.432;14.534;2023-06-22T04:37:09;11.35;;;6.40;;
75435;SDS011;64014;53.432;14.534;2023-06-22T04:39:40;11.57;;;7.20;;
75435;SDS011;64014;53.432;14.534;2023-06-22T04:42:06;10.13;;;6.38;;
75435;SDS011;64014;53.432;14.534;2023-06-22T04:44:32;10.43;;;7.30;;
75435;SDS011;64014;53.432;14.534;2023-06-22T04:47:00;10.63;;;6.10;;
75435;SDS011;64014;53.432;14.534;2023-06-22T04:49:28;9.55;;;5.90;;
75435;SDS011;64014;53.432;14.534;2023-06-22T04:51:58;10.45;;;6.35;;
75435;SDS011;64014;53.432;14.534;2023-06-22T04:54:25;10.23;;;6.15;;
75435;SDS011;64014;53.432;14.534;2023-06-22T04:56:51;8.13;;;6.32;;
75435;SDS011;64014;53.432;14.534;2023-06-22T04:59:23;10.02;;;6.53;;
75435;SDS011;64014;53.432;14.534;2023-06-22T05:01:59;10.68;;;5.65;;
75435;SDS011;64014;53.432;14.534;2023-06-22T05:04:26;10.73;;;5.65;;
75435;SDS011;64014;53.432;14.534;2023-06-22T05:07:00;10.38;;;6.07;;
75435;SDS011;64014;53.432;14.534;2023-06-22T05:09:27;10.63;;;5.72;;
75435;SDS011;64014;53.432;14.534;2023-06-22T05:11:53;7.75;;;5.75;;
75435;SDS011;64014;53.432;14.534;2023-06-22T05:14:19;12.35;;;6.57;;
75435;SDS011;64014;53.432;14.534;2023-06-22T05:16:45;7.78;;;5.22;;
75435;SDS011;64014;53.432;14.534;2023-06-22T05:19:12;11.20;;;5.97;;
75435;SDS011;64014;53.432;14.534;2023-06-22T05:21:38;8.60;;;5.50;;
75435;SDS011;64014;53.432;14.534;2023-06-22T05:24:04;9.95;;;5.78;;
75435;SDS011;64014;53.432;14.534;2023-06-22T05:26:31;9.05;;;5.15;;
75435;SDS011;64014;53.432;14.534;2023-06-22T05:28:58;7.68;;;5.55;;
75435;SDS011;64014;53.432;14.534;2023-06-22T05:31:25;9.45;;;5.43;;
75435;SDS011;64014;53.432;14.534;2023-06-22T05:33:52;7.53;;;4.30;;
75435;SDS011;64014;53.432;14.534;2023-06-22T05:36:18;9.07;;;4.95;;
75435;SDS011;64014;53.432;14.534;2023-06-22T05:38:45;6.35;;;4.90;;
75435;SDS011;64014;53.432;14.534;2023-06-22T05:41:11;6.78;;;4.45;;
75435;SDS011;64014;53.432;14.534;2023-06-22T05:43:37;7.18;;;4.07;;
75435;SDS011;64014;53.432;14.534;2023-06-22T05:46:04;6.20;;;3.80;;
75435;SDS011;64014;53.432;14.534;2023-06-22T05:48:30;5.70;;;3.90;;
75435;SDS011;64014;53.432;14.534;2023-06-22T05:50:57;8.63;;;4.30;;
75435;SDS011;64014;53.432;14.534;2023-06-22T05:53:23;7.32;;;3.97;;
75435;SDS011;64014;53.432;14.534;2023-06-22T05:55:49;8.70;;;4.15;;
75435;SDS011;64014;53.432;14.534;2023-06-22T05:58:16;7.50;;;3.90;;
75435;SDS011;64014;53.432;14.534;2023-06-22T06:00:42;7.55;;;3.60;;
75435;SDS011;64014;53.432;14.534;2023-06-22T06:03:09;9.50;;;4.75;;
75435;SDS011;64014;53.432;14.534;2023-06-22T06:05:35;7.53;;;4.10;;
75435;SDS011;64014;53.432;14.534;2023-06-22T06:08:03;6.03;;;3.53;;
75435;SDS011;64014;53.432;14.534;2023-06-22T06:10:33;10.43;;;3.63;;
75435;SDS011;64014;53.432;14.534;2023-06-22T06:12:59;7.25;;;3.67;;
75435;SDS011;64014;53.432;14.534;2023-06-22T06:15:32;7.38;;;4.45;;
75435;SDS011;64014;53.432;14.534;2023-06-22T06:17:58;7.53;;;3.30;;
75435;SDS011;64014;53.432;14.534;2023-06-22T06:20:25;7.38;;;3.33;;
75435;SDS011;64014;53.432;14.534;2023-06-22T06:22:53;7.80;;;3.90;;
75435;SDS011;64014;53.432;14.534;2023-06-22T06:25:19;6.68;;;3.28;;
75435;SDS011;64014;53.432;14.534;2023-06-22T06:27:46;5.57;;;2.70;;
75435;SDS011;64014;53.432;14.534;2023-06-22T06:30:14;7.18;;;2.72;;
75435;SDS011;64014;53.432;14.534;2023-06-22T06:32:41;6.32;;;3.13;;
75435;SDS011;64014;53.432;14.534;2023-06-22T06:35:07;5.78;;;3.22;;
75435;SDS011;64014;53.432;14.534;2023-06-22T06:37:38;5.90;;;2.95;;
75435;SDS011;64014;53.432;14.534;2023-06-22T06:40:07;4.80;;;2.08;;
75435;SDS011;64014;53.432;14.534;2023-06-22T06:42:45;6.22;;;2.38;;
75435;SDS011;64014;53.432;14.534;2023-06-22T06:45:12;6.97;;;2.65;;
75435;SDS011;64014;53.432;14.534;2023-06-22T06:47:39;5.68;;;2.40;;
75435;SDS011;64014;53.432;14.534;2023-06-22T06:50:05;8.18;;;2.67;;
75435;SDS011;64014;53.432;14.534;2023-06-22T06:52:32;8.07;;;2.75;;
75435;SDS011;64014;53.432;14.534;2023-06-22T06:54:58;6.93;;;3.03;;
75435;SDS011;64014;53.432;14.534;2023-06-22T06:57:25;4.30;;;2.33;;
75435;SDS011;64014;53.432;14.534;2023-06-22T06:59:55;5.68;;;2.35;;
75435;SDS011;64014;53.432;14.534;2023-06-22T07:02:22;5.57;;;2.45;;
75435;SDS011;64014;53.432;14.534;2023-06-22T07:04:48;5.20;;;2.63;;
75435;SDS011;64014;53.432;14.534;2023-06-22T07:07:14;6.00;;;3.13;;
75435;SDS011;64014;53.432;14.534;2023-06-22T07:09:40;6.38;;;2.85;;
75435;SDS011;64014;53.432;14.534;2023-06-22T07:12:07;5.07;;;2.88;;
75435;SDS011;64014;53.432;14.534;2023-06-22T07:14:33;7.72;;;2.72;;
75435;SDS011;64014;53.432;14.534;2023-06-22T07:16:59;5.63;;;2.70;;
75435;SDS011;64014;53.432;14.534;2023-06-22T07:19:26;6.53;;;3.00;;
75435;SDS011;64014;53.432;14.534;2023-06-22T07:21:53;4.85;;;2.58;;
75435;SDS011;64014;53.432;14.534;2023-06-22T07:24:20;6.60;;;2.90;;
75435;SDS011;64014;53.432;14.534;2023-06-22T07:26:49;5.03;;;2.80;;
75435;SDS011;64014;53.432;14.534;2023-06-22T07:29:24;7.50;;;2.22;;
75435;SDS011;64014;53.432;14.534;2023-06-22T07:31:51;6.28;;;2.03;;
75435;SDS011;64014;53.432;14.534;2023-06-22T07:34:18;5.40;;;2.83;;
75435;SDS011;64014;53.432;14.534;2023-06-22T07:36:44;6.20;;;2.20;;
75435;SDS011;64014;53.432;14.534;2023-06-22T07:39:11;5.25;;;2.13;;
75435;SDS011;64014;53.432;14.534;2023-06-22T07:41:38;6.50;;;2.15;;
75435;SDS011;64014;53.432;14.534;2023-06-22T07:44:06;4.30;;;2.10;;
75435;SDS011;64014;53.432;14.534;2023-06-22T07:46:32;5.00;;;1.92;;
75435;SDS011;64014;53.432;14.534;2023-06-22T07:48:58;5.03;;;1.88;;
75435;SDS011;64014;53.432;14.534;2023-06-22T07:51:25;3.50;;;1.73;;
75435;SDS011;64014;53.432;14.534;2023-06-22T07:53:51;3.70;;;1.60;;
75435;SDS011;64014;53.432;14.534;2023-06-22T07:56:17;6.03;;;1.45;;
75435;SDS011;64014;53.432;14.534;2023-06-22T07:58:46;5.05;;;2.33;;
75435;SDS011;64014;53.432;14.534;2023-06-22T08:01:15;3.30;;;1.48;;
75435;SDS011;64014;53.432;14.534;2023-06-22T08:03:42;6.10;;;1.90;;
75435;SDS011;64014;53.432;14.534;2023-06-22T08:06:08;2.67;;;1.50;;
75435;SDS011;64014;53.432;14.534;2023-06-22T08:08:38;3.40;;;1.48;;
75435;SDS011;64014;53.432;14.534;2023-06-22T08:11:04;4.38;;;1.45;;
75435;SDS011;64014;53.432;14.534;2023-06-22T08:13:30;5.07;;;1.13;;
75435;SDS011;64014;53.432;14.534;2023-06-22T08:15:57;4.28;;;1.50;;
75435;SDS011;64014;53.432;14.534;2023-06-22T08:18:23;2.47;;;1.23;;
75435;SDS011;64014;53.432;14.534;2023-06-22T08:20:49;4.07;;;1.50;;
75435;SDS011;64014;53.432;14.534;2023-06-22T08:23:15;4.47;;;1.45;;
75435;SDS011;64014;53.432;14.534;2023-06-22T08:25:41;6.00;;;2.28;;
75435;SDS011;64014;53.432;14.534;2023-06-22T08:28:08;3.35;;;1.38;;
75435;SDS011;64014;53.432;14.534;2023-06-22T08:30:34;3.85;;;1.55;;
75435;SDS011;64014;53.432;14.534;2023-06-22T08:33:00;3.13;;;1.55;;
75435;SDS011;64014;53.432;14.534;2023-06-22T08:35:27;5.40;;;1.33;;
75435;SDS011;64014;53.432;14.534;2023-06-22T08:37:54;3.53;;;1.05;;
75435;SDS011;64014;53.432;14.534;2023-06-22T08:40:22;4.47;;;1.25;;
75435;SDS011;64014;53.432;14.534;2023-06-22T08:42:49;7.53;;;3.72;;
75435;SDS011;64014;53.432;14.534;2023-06-22T08:45:15;9.50;;;5.22;;
75435;SDS011;64014;53.432;14.534;2023-06-22T08:47:41;10.48;;;6.85;;
75435;SDS011;64014;53.432;14.534;2023-06-22T08:50:08;10.60;;;5.45;;
75435;SDS011;64014;53.432;14.534;2023-06-22T08:52:35;10.38;;;5.93;;
75435;SDS011;64014;53.432;14.534;2023-06-22T08:55:02;12.25;;;5.55;;
75435;SDS011;64014;53.432;14.534;2023-06-22T08:57:28;7.15;;;4.25;;
75435;SDS011;64014;53.432;14.534;2023-06-22T08:59:55;9.80;;;5.40;;
75435;SDS011;64014;53.432;14.534;2023-06-22T09:02:27;9.02;;;6.13;;
75435;SDS011;64014;53.432;14.534;2023-06-22T09:04:58;9.57;;;5.45;;
75435;SDS011;64014;53.432;14.534;2023-06-22T09:07:24;10.85;;;4.43;;
75435;SDS011;64014;53.432;14.534;2023-06-22T09:09:51;8.43;;;2.72;;
75435;SDS011;64014;53.432;14.534;2023-06-22T09:12:17;5.50;;;1.35;;
75435;SDS011;64014;53.432;14.534;2023-06-22T09:14:45;2.60;;;1.20;;
75435;SDS011;64014;53.432;14.534;2023-06-22T09:17:12;4.43;;;1.15;;
75435;SDS011;64014;53.432;14.534;2023-06-22T09:19:38;3.33;;;1.52;;
75435;SDS011;64014;53.432;14.534;2023-06-22T09:22:05;3.83;;;1.35;;
75435;SDS011;64014;53.432;14.534;2023-06-22T09:24:31;3.17;;;1.20;;
75435;SDS011;64014;53.432;14.534;2023-06-22T09:26:58;3.55;;;1.35;;
75435;SDS011;64014;53.432;14.534;2023-06-22T09:29:24;2.60;;;1.10;;
75435;SDS011;64014;53.432;14.534;2023-06-22T09:31:50;4.35;;;1.02;;
75435;SDS011;64014;53.432;14.534;2023-06-22T09:34:18;3.70;;;1.45;;
75435;SDS011;64014;53.432;14.534;2023-06-22T09:36:45;2.97;;;1.92;;
75435;SDS011;64014;53.432;14.534;2023-06-22T09:39:11;4.75;;;1.40;;
75435;SDS011;64014;53.432;14.534;2023-06-22T09:41:38;3.70;;;1.45;;
75435;SDS011;64014;53.432;14.534;2023-06-22T09:44:04;2.53;;;1.40;;
75435;SDS011;64014;53.432;14.534;2023-06-22T09:46:30;2.75;;;1.40;;
75435;SDS011;64014;53.432;14.534;2023-06-22T09:48:56;4.22;;;1.25;;
75435;SDS011;64014;53.432;14.534;2023-06-22T09:51:23;5.32;;;1.30;;
75435;SDS011;64014;53.432;14.534;2023-06-22T09:53:49;3.67;;;1.17;;
75435;SDS011;64014;53.432;14.534;2023-06-22T09:56:15;2.85;;;1.15;;
75435;SDS011;64014;53.432;14.534;2023-06-22T09:58:42;3.65;;;1.50;;
75435;SDS011;64014;53.432;14.534;2023-06-22T10:01:08;2.72;;;1.20;;
75435;SDS011;64014;53.432;14.534;2023-06-22T10:03:39;3.90;;;1.45;;
75435;SDS011;64014;53.432;14.534;2023-06-22T10:06:06;2.70;;;1.25;;
75435;SDS011;64014;53.432;14.534;2023-06-22T10:08:33;4.55;;;1.23;;
75435;SDS011;64014;53.432;14.534;2023-06-22T10:10:59;2.92;;;1.55;;
75435;SDS011;64014;53.432;14.534;2023-06-22T10:13:26;3.22;;;1.23;;
75435;SDS011;64014;53.432;14.534;2023-06-22T10:15:52;3.13;;;1.45;;
75435;SDS011;64014;53.432;14.534;2023-06-22T10:18:18;2.65;;;1.75;;
75435;SDS011;64014;53.432;14.534;2023-06-22T10:20:46;5.28;;;1.00;;
75435;SDS011;64014;53.432;14.534;2023-06-22T10:23:12;2.30;;;0.98;;
75435;SDS011;64014;53.432;14.534;2023-06-22T10:25:39;3.13;;;1.67;;
75435;SDS011;64014;53.432;14.534;2023-06-22T10:28:05;5.20;;;1.52;;
75435;SDS011;64014;53.432;14.534;2023-06-22T10:30:32;3.83;;;1.63;;
75435;SDS011;64014;53.432;14.534;2023-06-22T10:32:58;3.97;;;1.48;;
75435;SDS011;64014;53.432;14.534;2023-06-22T10:35:25;5.72;;;1.20;;
75435;SDS011;64014;53.432;14.534;2023-06-22T10:37:52;4.53;;;1.85;;
75435;SDS011;64014;53.432;14.534;2023-06-22T10:40:19;3.55;;;1.50;;
75435;SDS011;64014;53.432;14.534;2023-06-22T10:42:46;3.53;;;2.17;;
75435;SDS011;64014;53.432;14.534;2023-06-22T10:45:12;3.45;;;1.77;;
75435;SDS011;64014;53.432;14.534;2023-06-22T10:47:38;3.70;;;1.60;;
75435;SDS011;64014;53.432;14.534;2023-06-22T10:50:07;4.15;;;1.80;;
75435;SDS011;64014;53.432;14.534;2023-06-22T10:52:33;4.80;;;1.33;;
75435;SDS011;64014;53.432;14.534;2023-06-22T10:54:59;4.32;;;2.35;;
75435;SDS011;64014;53.432;14.534;2023-06-22T10:57:26;3.10;;;1.98;;
75435;SDS011;64014;53.432;14.534;2023-06-22T10:59:52;4.72;;;2.17;;
75435;SDS011;64014;53.432;14.534;2023-06-22T11:02:18;4.35;;;1.83;;
75435;SDS011;64014;53.432;14.534;2023-06-22T11:04:44;3.72;;;1.73;;
75435;SDS011;64014;53.432;14.534;2023-06-22T11:07:11;6.25;;;1.58;;
75435;SDS011;64014;53.432;14.534;2023-06-22T11:09:37;5.03;;;1.73;;
75435;SDS011;64014;53.432;14.534;2023-06-22T11:12:04;4.35;;;1.42;;
75435;SDS011;64014;53.432;14.534;2023-06-22T11:14:31;4.10;;;2.53;;
75435;SDS011;64014;53.432;14.534;2023-06-22T11:16:58;3.53;;;2.05;;
75435;SDS011;64014;53.432;14.534;2023-06-22T11:19:25;3.85;;;2.22;;
75435;SDS011;64014;53.432;14.534;2023-06-22T11:21:51;4.60;;;2.42;;
75435;SDS011;64014;53.432;14.534;2023-06-22T11:24:17;3.83;;;2.00;;
75435;SDS011;64014;53.432;14.534;2023-06-22T11:26:43;5.30;;;2.40;;
75435;SDS011;64014;53.432;14.534;2023-06-22T11:29:09;4.20;;;2.03;;
75435;SDS011;64014;53.432;14.534;2023-06-22T11:31:36;4.07;;;2.60;;
75435;SDS011;64014;53.432;14.534;2023-06-22T11:34:03;4.40;;;2.17;;
75435;SDS011;64014;53.432;14.534;2023-06-22T11:36:29;4.07;;;2.22;;
75435;SDS011;64014;53.432;14.534;2023-06-22T11:38:58;5.47;;;2.97;;
75435;SDS011;64014;53.432;14.534;2023-06-22T11:41:24;3.67;;;2.55;;
75435;SDS011;64014;53.432;14.534;2023-06-22T11:43:50;7.70;;;3.80;;
75435;SDS011;64014;53.432;14.534;2023-06-22T11:46:16;8.02;;;3.67;;
75435;SDS011;64014;53.432;14.534;2023-06-22T11:48:42;5.80;;;3.30;;
75435;SDS011;64014;53.432;14.534;2023-06-22T11:51:09;6.63;;;4.00;;
75435;SDS011;64014;53.432;14.534;2023-06-22T11:53:35;6.90;;;3.35;;
75435;SDS011;64014;53.432;14.534;2023-06-22T11:56:01;8.98;;;4.00;;
75435;SDS011;64014;53.432;14.534;2023-06-22T11:58:28;6.13;;;3.75;;
75435;SDS011;64014;53.432;14.534;2023-06-22T12:00:54;6.65;;;4.78;;
75435;SDS011;64014;53.432;14.534;2023-06-22T12:03:20;6.97;;;4.50;;
75435;SDS011;64014;53.432;14.534;2023-06-22T12:05:46;7.40;;;3.70;;
75435;SDS011;64014;53.432;14.534;2023-06-22T12:08:13;6.45;;;3.90;;
75435;SDS011;64014;53.432;14.534;2023-06-22T12:10:39;6.35;;;3.38;;
75435;SDS011;64014;53.432;14.534;2023-06-22T12:13:05;7.57;;;3.00;;
75435;SDS011;64014;53.432;14.534;2023-06-22T12:15:31;8.90;;;4.25;;
75435;SDS011;64014;53.432;14.534;2023-06-22T12:17:57;6.88;;;4.00;;
75435;SDS011;64014;53.432;14.534;2023-06-22T12:20:24;5.22;;;3.10;;
75435;SDS011;64014;53.432;14.534;2023-06-22T12:22:50;7.25;;;3.55;;
75435;SDS011;64014;53.432;14.534;2023-06-22T12:25:17;6.90;;;3.25;;
75435;SDS011;64014;53.432;14.534;2023-06-22T12:27:44;7.45;;;3.47;;
75435;SDS011;64014;53.432;14.534;2023-06-22T12:30:10;5.30;;;3.17;;
75435;SDS011;64014;53.432;14.534;2023-06-22T12:32:36;7.75;;;4.28;;
75435;SDS011;64014;53.432;14.534;2023-06-22T12:35:02;6.82;;;3.05;;
75435;SDS011;64014;53.432;14.534;2023-06-22T12:37:29;7.40;;;3.35;;
75435;SDS011;64014;53.432;14.534;2023-06-22T12:39:56;7.22;;;2.85;;
75435;SDS011;64014;53.432;14.534;2023-06-22T12:42:23;4.25;;;2.22;;
75435;SDS011;64014;53.432;14.534;2023-06-22T12:44:49;5.03;;;2.65;;
75435;SDS011;64014;53.432;14.534;2023-06-22T12:47:15;6.85;;;2.75;;
75435;SDS011;64014;53.432;14.534;2023-06-22T12:49:41;4.18;;;2.15;;
75435;SDS011;64014;53.432;14.534;2023-06-22T12:52:11;5.50;;;2.30;;
75435;SDS011;64014;53.432;14.534;2023-06-22T12:54:37;4.13;;;2.10;;
75435;SDS011;64014;53.432;14.534;2023-06-22T12:57:03;4.03;;;2.20;;
75435;SDS011;64014;53.432;14.534;2023-06-22T12:59:30;5.07;;;2.20;;
75435;SDS011;64014;53.432;14.534;2023-06-22T13:01:56;6.25;;;2.25;;
75435;SDS011;64014;53.432;14.534;2023-06-22T13:04:22;5.15;;;2.72;;
75435;SDS011;64014;53.432;14.534;2023-06-22T13:06:48;6.43;;;2.30;;
75435;SDS011;64014;53.432;14.534;2023-06-22T13:09:15;3.70;;;1.52;;
75435;SDS011;64014;53.432;14.534;2023-06-22T13:11:42;4.63;;;2.00;;
75435;SDS011;64014;53.432;14.534;2023-06-22T13:14:08;3.83;;;1.60;;
75435;SDS011;64014;53.432;14.534;2023-06-22T13:16:35;4.28;;;2.03;;
75435;SDS011;64014;53.432;14.534;2023-06-22T13:19:01;5.93;;;2.38;;
75435;SDS011;64014;53.432;14.534;2023-06-22T13:21:27;5.50;;;1.63;;
75435;SDS011;64014;53.432;14.534;2023-06-22T13:23:53;3.85;;;2.40;;
75435;SDS011;64014;53.432;14.534;2023-06-22T13:26:20;5.68;;;2.17;;
75435;SDS011;64014;53.432;14.534;2023-06-22T13:28:47;3.65;;;2.28;;
75435;SDS011;64014;53.432;14.534;2023-06-22T13:31:13;5.07;;;2.63;;
75435;SDS011;64014;53.432;14.534;2023-06-22T13:33:39;4.75;;;2.85;;
75435;SDS011;64014;53.432;14.534;2023-06-22T13:36:06;5.85;;;2.50;;
75435;SDS011;64014;53.432;14.534;2023-06-22T13:38:32;5.00;;;2.88;;
75435;SDS011;64014;53.432;14.534;2023-06-22T13:40:58;4.68;;;1.60;;
75435;SDS011;64014;53.432;14.534;2023-06-22T13:43:26;6.07;;;1.77;;
75435;SDS011;64014;53.432;14.534;2023-06-22T13:48:18;3.97;;;1.92;;
75435;SDS011;64014;53.432;14.534;2023-06-22T13:50:45;4.57;;;2.17;;
75435;SDS011;64014;53.432;14.534;2023-06-22T13:53:11;6.43;;;2.08;;
75435;SDS011;64014;53.432;14.534;2023-06-22T13:55:37;6.10;;;2.42;;
75435;SDS011;64014;53.432;14.534;2023-06-22T13:58:03;4.07;;;2.28;;
75435;SDS011;64014;53.432;14.534;2023-06-22T14:00:29;4.68;;;2.50;;
75435;SDS011;64014;53.432;14.534;2023-06-22T14:02:56;4.20;;;2.40;;
75435;SDS011;64014;53.432;14.534;2023-06-22T14:05:22;4.65;;;2.13;;
75435;SDS011;64014;53.432;14.534;2023-06-22T14:07:48;3.70;;;2.25;;
75435;SDS011;64014;53.432;14.534;2023-06-22T14:10:14;5.05;;;2.30;;
75435;SDS011;64014;53.432;14.534;2023-06-22T14:12:40;5.00;;;2.75;;
75435;SDS011;64014;53.432;14.534;2023-06-22T14:15:07;4.45;;;2.58;;
75435;SDS011;64014;53.432;14.534;2023-06-22T14:17:33;6.10;;;2.60;;
75435;SDS011;64014;53.432;14.534;2023-06-22T14:19:59;4.07;;;2.13;;
75435;SDS011;64014;53.432;14.534;2023-06-22T14:22:25;5.10;;;3.20;;
75435;SDS011;64014;53.432;14.534;2023-06-22T14:24:54;4.15;;;2.25;;
75435;SDS011;64014;53.432;14.534;2023-06-22T14:27:22;4.75;;;2.60;;
75435;SDS011;64014;53.432;14.534;2023-06-22T14:29:49;4.78;;;2.50;;
75435;SDS011;64014;53.432;14.534;2023-06-22T14:32:15;6.30;;;2.63;;
75435;SDS011;64014;53.432;14.534;2023-06-22T14:34:41;5.10;;;2.63;;
75435;SDS011;64014;53.432;14.534;2023-06-22T14:37:08;4.38;;;2.42;;
75435;SDS011;64014;53.432;14.534;2023-06-22T14:39:35;4.68;;;2.58;;